Time;durP1;ratioP1;P1;durP2;ratioP2;P2;SDS_P1;SDS_P2;PMS_P1;PMS_P2;Temp;Humidity;BMP_temperature;BMP_pressure;BME280_temperature;BME280_humidity;BME280_pressure;Samples;Min_cycle;Max_cycle;Signal;HPM_P1;HPM_P2
2022/05/13 00:02:10;;;;;;;5.65;1.70;;;11.50;99.90;;;;;;5080153;28;20521;-65
2022/05/13 00:04:36;;;;;;;5.85;1.73;;;11.50;99.90;;;;;;5053545;28;20045;-65
2022/05/13 00:07:02;;;;;;;8.77;1.42;;;11.60;99.90;;;;;;5050793;28;20542;-65
2022/05/13 00:12:13;;;;;;;9.10;1.80;;;11.60;99.90;;;;;;5053027;28;20048;-66
2022/05/13 00:14:39;;;;;;;6.65;1.52;;;11.60;99.90;;;;;;5053817;28;20431;-66
2022/05/13 00:17:05;;;;;;;6.55;1.83;;;11.60;99.90;;;;;;5086298;28;20131;-65
2022/05/13 00:19:31;;;;;;;5.32;1.27;;;11.60;99.90;;;;;;5052759;28;20119;-65
2022/05/13 00:21:57;;;;;;;5.25;1.63;;;11.70;99.90;;;;;;5083465;28;20047;-65
2022/05/13 00:24:23;;;;;;;4.95;1.73;;;11.70;99.90;;;;;;5051029;28;20488;-65
2022/05/13 00:26:49;;;;;;;6.90;1.60;;;11.70;99.90;;;;;;5086156;28;20075;-65
2022/05/13 00:29:15;;;;;;;5.88;1.95;;;11.70;99.90;;;;;;5052829;28;20063;-65
2022/05/13 00:31:42;;;;;;;6.25;1.60;;;11.70;99.90;;;;;;5055151;28;20044;-65
2022/05/13 00:34:09;;;;;;;10.80;1.83;;;11.70;99.90;;;;;;5080193;28;20089;-65
2022/05/13 00:36:37;;;;;;;5.10;1.20;;;11.70;99.90;;;;;;5083110;28;20043;-65
2022/05/13 00:39:04;;;;;;;5.85;1.33;;;11.80;99.90;;;;;;5051652;28;20093;-65
2022/05/13 00:41:30;;;;;;;4.25;1.08;;;11.80;99.90;;;;;;5055043;28;20040;-65
2022/05/13 00:43:56;;;;;;;5.35;1.42;;;11.80;99.90;;;;;;5053669;28;20250;-65
2022/05/13 00:46:24;;;;;;;8.43;1.65;;;11.90;99.90;;;;;;5050380;28;20040;-65
2022/05/13 00:48:50;;;;;;;4.38;1.15;;;11.90;99.90;;;;;;5048018;28;20036;-65
2022/05/13 00:51:39;;;;;;;6.63;1.70;;;11.90;99.90;;;;;;5083037;28;20503;-65
2022/05/13 00:54:07;;;;;;;8.43;1.70;;;12.00;99.90;;;;;;5055288;28;20040;-65
2022/05/13 00:56:34;;;;;;;8.23;2.30;;;12.00;99.90;;;;;;5080854;28;20045;-65
2022/05/13 00:59:02;;;;;;;7.68;1.60;;;12.00;99.90;;;;;;5052872;28;20495;-65
2022/05/13 01:01:28;;;;;;;6.25;1.13;;;12.00;99.90;;;;;;5049080;28;20481;-65
2022/05/13 01:04:01;;;;;;;9.50;1.38;;;12.00;99.90;;;;;;5054953;28;20382;-65
2022/05/13 01:06:27;;;;;;;6.35;2.13;;;12.00;99.90;;;;;;5081609;28;20049;-65
2022/05/13 01:08:53;;;;;;;4.05;1.30;;;12.10;99.90;;;;;;5079909;28;20483;-65
2022/05/13 01:11:23;;;;;;;5.47;1.20;;;12.00;99.90;;;;;;5053499;28;20047;-65
2022/05/13 01:14:00;;;;;;;4.28;1.15;;;12.00;99.90;;;;;;5055664;28;20716;-66
2022/05/13 01:16:26;;;;;;;7.95;1.33;;;12.00;99.90;;;;;;5051507;28;20131;-65
2022/05/13 01:18:52;;;;;;;9.80;1.42;;;12.00;99.90;;;;;;5046713;28;20048;-65
2022/05/13 01:21:26;;;;;;;4.22;1.42;;;12.00;99.90;;;;;;5081801;28;20048;-65
2022/05/13 01:23:52;;;;;;;8.02;1.55;;;12.00;99.90;;;;;;5050495;28;20033;-65
2022/05/13 01:26:22;;;;;;;6.80;1.45;;;12.00;99.90;;;;;;5076857;28;20045;-65
2022/05/13 01:28:50;;;;;;;5.47;1.30;;;12.00;99.90;;;;;;5053931;28;20076;-65
2022/05/13 01:31:43;;;;;;;7.63;1.58;;;12.00;99.90;;;;;;5051978;28;20036;-65
2022/05/13 01:34:11;;;;;;;5.38;1.02;;;12.00;99.90;;;;;;5049787;28;20048;-65
2022/05/13 01:36:39;;;;;;;5.32;2.05;;;12.00;99.90;;;;;;5054738;28;20094;-65
2022/05/13 01:39:05;;;;;;;4.95;1.30;;;12.00;99.90;;;;;;5049792;28;20111;-65
2022/05/13 01:41:31;;;;;;;7.05;1.42;;;12.00;99.90;;;;;;5059252;28;20045;-65
2022/05/13 01:43:57;;;;;;;7.10;1.98;;;12.00;99.90;;;;;;5049418;28;20049;-65
2022/05/13 01:46:24;;;;;;;4.70;1.48;;;12.00;99.90;;;;;;5054554;28;20039;-65
2022/05/13 01:48:50;;;;;;;7.93;2.33;;;12.00;99.90;;;;;;5050090;28;20438;-65
2022/05/13 01:51:17;;;;;;;8.18;1.73;;;12.00;99.90;;;;;;5053145;28;20099;-65
2022/05/13 01:53:43;;;;;;;5.72;1.30;;;12.00;99.90;;;;;;5033054;28;20098;-65
2022/05/13 01:56:09;;;;;;;7.30;2.17;;;12.00;99.90;;;;;;5047223;28;20043;-65
2022/05/13 01:58:35;;;;;;;8.75;1.65;;;12.00;99.90;;;;;;5083961;28;20056;-65
2022/05/13 02:01:04;;;;;;;7.57;1.55;;;11.90;99.90;;;;;;5051440;28;20041;-65
2022/05/13 02:03:45;;;;;;;5.60;1.58;;;11.90;99.90;;;;;;5052446;28;20502;-65
2022/05/13 02:06:19;;;;;;;13.23;2.25;;;11.90;99.90;;;;;;5052596;28;20399;-65
2022/05/13 02:08:46;;;;;;;6.72;1.35;;;12.10;99.90;;;;;;5081049;28;20103;-65
2022/05/13 02:11:12;;;;;;;5.70;1.65;;;12.00;99.90;;;;;;5057860;28;20051;-65
2022/05/13 02:13:39;;;;;;;7.90;1.35;;;11.90;99.90;;;;;;5088012;28;20045;-65
2022/05/13 02:16:05;;;;;;;7.55;1.58;;;11.90;99.90;;;;;;5055339;28;20059;-65
2022/05/13 02:18:31;;;;;;;7.68;1.73;;;11.90;99.90;;;;;;5060247;28;20044;-65
2022/05/13 02:20:57;;;;;;;10.40;1.88;;;11.90;99.90;;;;;;5083881;28;20098;-65
2022/05/13 02:23:23;;;;;;;12.55;2.90;;;11.90;99.90;;;;;;5054220;28;20483;-65
2022/05/13 02:25:50;;;;;;;6.20;1.63;;;11.90;99.90;;;;;;5088544;28;20041;-65
2022/05/13 02:28:17;;;;;;;9.68;1.88;;;11.90;99.90;;;;;;5055459;28;20040;-65
2022/05/13 02:30:42;;;;;;;7.75;1.63;;;11.90;99.90;;;;;;5058025;28;20131;-65
2022/05/13 02:33:08;;;;;;;6.55;1.73;;;11.90;99.90;;;;;;5055710;28;21054;-65
2022/05/13 02:35:34;;;;;;;5.53;1.63;;;12.00;99.90;;;;;;5053214;28;20474;-65
2022/05/13 02:38:00;;;;;;;5.40;1.73;;;12.00;99.90;;;;;;5054213;28;20049;-65
2022/05/13 02:41:11;;;;;;;6.80;1.77;;;12.00;99.90;;;;;;5083147;28;20127;-66
2022/05/13 02:43:12;;;;;;;7.78;1.75;;;12.00;99.90;;;;;;5056439;28;20037;-65
2022/05/13 02:45:39;;;;;;;10.48;1.65;;;12.00;99.90;;;;;;5055240;28;20128;-65
2022/05/13 02:48:05;;;;;;;4.43;1.42;;;11.90;99.90;;;;;;5054350;28;20041;-65
2022/05/13 02:50:31;;;;;;;8.88;2.40;;;12.00;99.90;;;;;;5050543;28;20126;-65
2022/05/13 02:52:58;;;;;;;8.10;1.90;;;11.90;99.90;;;;;;5049302;28;20076;-65
2022/05/13 02:55:23;;;;;;;6.05;1.48;;;12.00;99.90;;;;;;5053349;28;20118;-65
2022/05/13 02:57:49;;;;;;;7.55;2.35;;;11.90;99.90;;;;;;5056163;28;20505;-65
2022/05/13 03:00:15;;;;;;;8.77;2.40;;;12.00;99.90;;;;;;5058236;28;20071;-65
2022/05/13 03:02:43;;;;;;;8.73;1.98;;;11.90;99.90;;;;;;5055723;28;20762;-65
2022/05/13 03:05:09;;;;;;;11.68;2.63;;;11.90;99.90;;;;;;5048619;28;20098;-65
2022/05/13 03:07:34;;;;;;;8.35;1.95;;;11.80;99.90;;;;;;5053831;28;20136;-65
2022/05/13 03:10:00;;;;;;;12.50;2.00;;;11.80;99.90;;;;;;5055800;28;20394;-65
2022/05/13 03:12:25;;;;;;;5.78;1.75;;;11.80;99.90;;;;;;5057367;28;20045;-65
2022/05/13 03:14:51;;;;;;;10.88;2.47;;;11.90;99.90;;;;;;5086209;28;20044;-65
2022/05/13 03:17:16;;;;;;;5.90;1.48;;;11.80;99.90;;;;;;5049618;28;20033;-65
2022/05/13 03:19:42;;;;;;;10.80;2.67;;;11.80;99.90;;;;;;5050197;28;20053;-65
2022/05/13 03:22:08;;;;;;;12.93;2.28;;;11.70;99.90;;;;;;5058211;28;20033;-65
2022/05/13 03:24:34;;;;;;;6.13;1.98;;;11.70;99.90;;;;;;5052484;28;20062;-65
2022/05/13 03:27:00;;;;;;;9.77;1.88;;;11.70;99.90;;;;;;5087016;28;20112;-65
2022/05/13 03:29:26;;;;;;;6.72;1.90;;;11.70;99.90;;;;;;5052713;28;20637;-65
2022/05/13 03:31:52;;;;;;;6.55;1.73;;;11.70;99.90;;;;;;5046826;28;20044;-65
2022/05/13 03:34:18;;;;;;;9.98;3.10;;;11.80;99.90;;;;;;5049112;28;20037;-65
2022/05/13 03:36:43;;;;;;;7.20;2.17;;;11.80;99.90;;;;;;5086412;28;20037;-65
2022/05/13 03:39:09;;;;;;;8.45;2.00;;;11.80;99.90;;;;;;5055385;28;20044;-65
2022/05/13 03:41:34;;;;;;;7.93;2.25;;;11.80;99.90;;;;;;5053255;28;20479;-65
2022/05/13 03:44:00;;;;;;;7.57;2.72;;;11.80;99.90;;;;;;5039010;28;20044;-65
2022/05/13 03:46:26;;;;;;;9.77;2.20;;;11.80;99.90;;;;;;5053399;28;20131;-65
2022/05/13 03:48:52;;;;;;;7.35;2.15;;;11.70;99.90;;;;;;5053027;28;20040;-65
2022/05/13 03:51:17;;;;;;;11.95;3.00;;;11.80;99.90;;;;;;5088024;28;20044;-65
2022/05/13 03:53:43;;;;;;;5.90;2.15;;;11.80;99.90;;;;;;5050174;28;20048;-65
2022/05/13 03:56:09;;;;;;;10.93;2.33;;;11.80;99.90;;;;;;5053931;28;20174;-65
2022/05/13 03:58:35;;;;;;;10.48;2.20;;;11.80;99.90;;;;;;5050494;28;20519;-65
2022/05/13 04:01:02;;;;;;;11.27;2.42;;;11.80;99.90;;;;;;5054646;28;20037;-65
2022/05/13 04:03:28;;;;;;;10.70;3.00;;;11.80;99.90;;;;;;5052726;28;20048;-65
2022/05/13 04:08:56;;;;;;;7.97;2.20;;;12.50;99.90;;;;;;5051540;28;20053;-65
2022/05/13 04:11:23;;;;;;;10.93;2.72;;;11.80;99.90;;;;;;5053483;28;20047;-65
2022/05/13 04:16:33;;;;;;;9.60;2.45;;;11.80;99.90;;;;;;5082129;28;20076;-65
2022/05/13 04:18:58;;;;;;;10.70;3.00;;;11.80;99.90;;;;;;5050803;28;20068;-65
2022/05/13 04:21:30;;;;;;;8.35;2.28;;;11.80;99.90;;;;;;5051577;28;20390;-65
2022/05/13 04:23:58;;;;;;;9.75;2.13;;;11.80;99.90;;;;;;5053172;28;20131;-65
2022/05/13 04:26:25;;;;;;;9.02;2.17;;;11.80;99.90;;;;;;5055132;28;20036;-65
2022/05/13 04:28:52;;;;;;;8.57;2.40;;;11.90;99.90;;;;;;5054990;28;20090;-65
2022/05/13 04:31:20;;;;;;;11.07;2.53;;;11.80;99.90;;;;;;5054350;28;20066;-65
2022/05/13 04:33:47;;;;;;;13.93;2.72;;;11.80;99.90;;;;;;5054801;28;20044;-65
2022/05/13 04:36:13;;;;;;;10.48;2.88;;;11.80;99.90;;;;;;5054973;28;20041;-65
2022/05/13 04:38:39;;;;;;;7.85;2.17;;;11.80;99.90;;;;;;5052299;28;20044;-65
2022/05/13 04:43:51;;;;;;;;;;;11.90;99.90;;;;;;5048911;28;20186;-65
2022/05/13 04:46:17;;;;;;;12.35;2.83;;;12.00;99.90;;;;;;5082284;28;20011;-65
2022/05/13 04:48:43;;;;;;;13.98;3.42;;;11.90;99.90;;;;;;5044186;28;20037;-65
2022/05/13 04:51:10;;;;;;;16.80;2.63;;;12.00;99.90;;;;;;5054571;28;20090;-65
2022/05/13 04:53:37;;;;;;;14.93;4.07;;;12.10;99.90;;;;;;5050707;28;20051;-65
2022/05/13 04:56:05;;;;;;;14.13;3.83;;;12.10;99.90;;;;;;5053514;28;20395;-65
2022/05/13 04:58:31;;;;;;;14.63;2.67;;;12.10;99.90;;;;;;5052256;28;20497;-65
2022/05/13 05:00:59;;;;;;;22.05;3.25;;;12.00;99.90;;;;;;5047879;28;20487;-65
2022/05/13 05:03:28;;;;;;;8.63;1.83;;;12.10;99.90;;;;;;5083978;28;20055;-65
2022/05/13 05:05:58;;;;;;;13.70;2.90;;;12.20;99.90;;;;;;5079891;28;20047;-65
2022/05/13 05:08:24;;;;;;;11.85;2.65;;;12.10;99.90;;;;;;5055159;28;20044;-65
2022/05/13 05:10:50;;;;;;;15.40;3.15;;;12.20;99.90;;;;;;5055650;28;20040;-65
2022/05/13 05:13:23;;;;;;;14.48;3.38;;;12.10;99.90;;;;;;5049511;28;20296;-65
2022/05/13 05:15:49;;;;;;;20.25;3.38;;;12.20;99.90;;;;;;5046907;28;20063;-65
2022/05/13 05:18:15;;;;;;;15.52;2.95;;;12.20;99.90;;;;;;5051843;28;20487;-65
2022/05/13 05:20:42;;;;;;;11.98;2.63;;;12.30;99.90;;;;;;5054884;28;20048;-65
2022/05/13 05:23:14;;;;;;;12.68;2.60;;;12.30;99.90;;;;;;5044173;28;20163;-65
2022/05/13 05:25:40;;;;;;;17.98;3.08;;;12.40;99.90;;;;;;5056218;28;20044;-65
2022/05/13 05:28:06;;;;;;;15.77;2.83;;;12.40;99.90;;;;;;5050414;28;20049;-65
2022/05/13 05:30:31;;;;;;;11.57;2.47;;;12.50;99.90;;;;;;5051322;28;20041;-65
2022/05/13 05:32:57;;;;;;;15.50;2.92;;;12.50;99.90;;;;;;5048237;28;20044;-65
2022/05/13 05:35:23;;;;;;;12.77;3.78;;;12.60;99.90;;;;;;5046316;28;20041;-65
2022/05/13 05:37:49;;;;;;;15.95;3.50;;;12.70;99.90;;;;;;5041200;28;20045;-65
2022/05/13 05:40:16;;;;;;;22.35;3.92;;;13.20;99.90;;;;;;5046174;28;20063;-66
2022/05/13 05:42:42;;;;;;;13.45;3.00;;;14.20;99.90;;;;;;5049126;28;20041;-66
2022/05/13 05:45:12;;;;;;;10.77;1.73;;;14.80;99.90;;;;;;5089952;28;20123;-66
2022/05/13 05:47:38;;;;;;;10.80;2.25;;;15.40;99.90;;;;;;5045917;28;20048;-66
2022/05/13 05:50:07;;;;;;;32.90;4.45;;;15.80;99.90;;;;;;5058614;28;20037;-66
2022/05/13 05:52:33;;;;;;;12.10;2.67;;;16.00;99.90;;;;;;5083108;28;20167;-66
2022/05/13 05:58:10;;;;;;;9.15;2.28;;;16.00;99.90;;;;;;5041655;28;20044;-66
2022/05/13 06:00:40;;;;;;;11.20;2.75;;;15.90;99.90;;;;;;5053584;28;20135;-66
2022/05/13 06:03:06;;;;;;;16.17;3.03;;;15.80;99.90;;;;;;5049906;28;20110;-66
2022/05/13 06:05:32;;;;;;;12.48;2.65;;;15.80;99.90;;;;;;5057812;28;20858;-66
2022/05/13 06:07:59;;;;;;;17.55;3.25;;;15.70;99.90;;;;;;5058504;28;20516;-66
2022/05/13 06:10:26;;;;;;;10.82;2.78;;;15.70;99.90;;;;;;5048592;28;20044;-66
2022/05/13 06:12:52;;;;;;;16.38;3.65;;;15.70;99.90;;;;;;5052297;28;20052;-66
2022/05/13 06:15:18;;;;;;;11.82;3.20;;;15.70;99.90;;;;;;5041946;28;20530;-66
2022/05/13 06:17:50;;;;;;;14.07;2.83;;;15.60;99.90;;;;;;5056426;28;20163;-67
2022/05/13 06:20:19;;;;;;;17.48;2.80;;;15.60;99.90;;;;;;5055619;28;20115;-67
2022/05/13 06:22:45;;;;;;;11.60;3.03;;;15.50;99.90;;;;;;5084472;28;20110;-67
2022/05/13 06:25:13;;;;;;;17.30;4.28;;;15.40;99.90;;;;;;5082410;28;20040;-67
2022/05/13 06:27:39;;;;;;;12.82;2.70;;;15.50;99.90;;;;;;5052584;28;20059;-67
2022/05/13 06:30:07;;;;;;;16.88;2.88;;;15.40;99.90;;;;;;5054303;28;20484;-67
2022/05/13 06:32:33;;;;;;;10.20;3.22;;;15.30;99.90;;;;;;5050461;28;20037;-67
2022/05/13 06:34:59;;;;;;;11.90;2.58;;;15.20;99.90;;;;;;5056076;28;20052;-67
2022/05/13 06:37:27;;;;;;;18.30;3.75;;;15.20;99.90;;;;;;5051155;28;20518;-67
2022/05/13 06:39:53;;;;;;;11.73;2.55;;;15.30;99.90;;;;;;5048613;28;20048;-67
2022/05/13 06:42:19;;;;;;;13.82;2.05;;;15.30;99.90;;;;;;5059286;28;20039;-67
2022/05/13 06:44:44;;;;;;;6.97;1.52;;;15.40;99.90;;;;;;5082682;28;20033;-67
2022/05/13 06:47:10;;;;;;;16.55;1.90;;;15.50;99.90;;;;;;5055837;28;20035;-67
2022/05/13 06:49:36;;;;;;;6.75;1.15;;;15.50;99.90;;;;;;5051140;28;20041;-66
2022/05/13 06:52:03;;;;;;;5.30;1.15;;;15.50;99.90;;;;;;5040858;28;20063;-67
2022/05/13 06:54:30;;;;;;;8.13;1.80;;;15.50;99.90;;;;;;5048382;28;20176;-67
2022/05/13 06:56:55;;;;;;;9.27;1.25;;;15.50;99.90;;;;;;5064383;28;20479;-67
2022/05/13 06:59:22;;;;;;;12.15;1.30;;;15.40;99.90;;;;;;5033809;28;20052;-67
2022/05/13 07:01:47;;;;;;;14.88;1.38;;;15.50;99.90;;;;;;5032122;28;20051;-66
2022/05/13 07:04:13;;;;;;;6.15;0.80;;;15.50;99.90;;;;;;5036594;28;20037;-66
2022/05/13 07:06:39;;;;;;;8.90;1.35;;;15.50;99.90;;;;;;5028743;28;20399;-66
2022/05/13 07:09:06;;;;;;;4.57;0.75;;;15.40;99.90;;;;;;5036008;28;20125;-66
2022/05/13 07:11:32;;;;;;;7.45;2.17;;;15.40;99.90;;;;;;5031664;28;20070;-66
2022/05/13 07:13:57;;;;;;;8.75;1.10;;;15.50;99.90;;;;;;5034417;28;20072;-67
2022/05/13 07:16:23;;;;;;;9.27;1.15;;;15.50;99.90;;;;;;5031175;28;20156;-67
2022/05/13 07:18:50;;;;;;;6.60;0.95;;;15.50;99.90;;;;;;5032552;28;20137;-66
2022/05/13 07:21:16;;;;;;;7.50;1.40;;;15.40;99.90;;;;;;5061612;28;20052;-67
2022/05/13 07:23:42;;;;;;;8.88;1.08;;;15.40;99.90;;;;;;5032941;28;20744;-66
2022/05/13 07:26:08;;;;;;;12.00;1.00;;;15.40;99.90;;;;;;5029471;28;20186;-66
2022/05/13 07:28:34;;;;;;;4.05;0.90;;;15.40;99.90;;;;;;5040085;28;20063;-66
2022/05/13 07:31:00;;;;;;;12.65;1.73;;;15.60;99.90;;;;;;5046101;28;20048;-66
2022/05/13 07:33:29;;;;;;;4.70;1.17;;;16.10;99.90;;;;;;5063473;28;20053;-67
2022/05/13 07:35:55;;;;;;;8.77;0.82;;;16.50;99.90;;;;;;5038850;28;20663;-66
2022/05/13 07:38:21;;;;;;;6.13;0.80;;;16.90;99.90;;;;;;5033840;28;20041;-66
2022/05/13 07:41:30;;;;;;;6.30;0.88;;;17.30;99.90;;;;;;5029172;28;20045;-67
2022/05/13 07:43:36;;;;;;;4.43;0.70;;;17.60;99.90;;;;;;5024971;28;20052;-65
2022/05/13 07:46:02;;;;;;;6.95;1.20;;;18.00;99.90;;;;;;5031085;28;20744;-67
2022/05/13 07:48:31;;;;;;;3.03;0.60;;;18.20;99.90;;;;;;5032100;28;20064;-67
2022/05/13 07:50:57;;;;;;;4.00;0.60;;;18.30;99.90;;;;;;5028789;28;20083;-67
2022/05/13 07:53:23;;;;;;;8.32;0.82;;;18.30;99.90;;;;;;5027400;28;20135;-67
2022/05/13 07:55:49;;;;;;;7.78;0.82;;;18.20;99.90;;;;;;5015430;28;20120;-66
2022/05/13 07:58:16;;;;;;;4.03;0.75;;;18.10;99.90;;;;;;5032517;28;20875;-67
2022/05/13 08:00:43;;;;;;;7.65;1.33;;;18.00;99.90;;;;;;5029888;28;20568;-67
2022/05/13 08:03:12;;;;;;;9.00;1.25;;;17.90;99.90;;;;;;5033970;28;20049;-66
2022/05/13 08:05:50;;;;;;;4.00;0.82;;;17.70;99.80;;;;;;5029474;28;20051;-66
2022/05/13 08:08:22;;;;;;;2.70;0.38;;;17.60;99.90;;;;;;5029176;28;20040;-66
2022/05/13 08:10:55;;;;;;;6.82;0.50;;;17.30;99.90;;;;;;5062913;28;20045;-66
2022/05/13 08:13:23;;;;;;;3.42;0.40;;;17.20;99.90;;;;;;5030294;28;20047;-67
2022/05/13 08:15:49;;;;;;;8.55;1.33;;;17.10;99.90;;;;;;5060554;28;20174;-66
2022/05/13 08:18:17;;;;;;;7.93;1.17;;;17.00;99.90;;;;;;5030086;28;20088;-66
2022/05/13 08:20:44;;;;;;;4.88;0.73;;;17.00;99.90;;;;;;5030628;28;20044;-66
2022/05/13 08:23:09;;;;;;;6.07;0.98;;;17.10;99.90;;;;;;5034195;28;20040;-66
2022/05/13 08:25:35;;;;;;;13.95;1.30;;;17.20;99.90;;;;;;5029546;28;20130;-66
2022/05/13 08:28:01;;;;;;;4.97;0.77;;;17.10;99.90;;;;;;5059036;28;21889;-66
2022/05/13 08:30:27;;;;;;;7.05;0.70;;;17.40;99.90;;;;;;5043107;28;20072;-67
2022/05/13 08:32:52;;;;;;;11.90;1.25;;;17.50;99.90;;;;;;5033618;28;20526;-66
2022/05/13 08:35:20;;;;;;;6.20;0.80;;;17.70;99.90;;;;;;5033433;28;20171;-66
2022/05/13 08:37:49;;;;;;;6.32;1.38;;;17.70;99.90;;;;;;5032201;28;20106;-66
2022/05/13 08:40:40;;;;;;;8.15;1.00;;;17.60;99.90;;;;;;5029712;28;20415;-66
2022/05/13 08:43:12;;;;;;;10.43;1.95;;;17.80;99.90;;;;;;5030108;28;20478;-67
2022/05/13 08:45:40;;;;;;;8.73;1.48;;;17.90;99.50;;;;;;5027430;28;20513;-66
2022/05/13 08:48:12;;;;;;;10.02;1.33;;;17.70;98.60;;;;;;5031191;28;20032;-66
2022/05/13 08:51:01;;;;;;;8.90;1.33;;;17.60;99.40;;;;;;5029583;28;20044;-66
2022/05/13 08:53:35;;;;;;;5.82;1.20;;;17.50;99.90;;;;;;5026687;28;20056;-66
2022/05/13 08:56:09;;;;;;;5.55;1.05;;;17.50;99.90;;;;;;5027963;28;20656;-66
2022/05/13 08:58:51;;;;;;;4.47;0.88;;;17.50;99.90;;;;;;5031382;28;20040;-66
2022/05/13 09:01:32;;;;;;;4.40;0.95;;;17.50;99.90;;;;;;5040979;28;20060;-66
2022/05/13 09:04:05;;;;;;;9.38;1.17;;;17.60;99.90;;;;;;5027239;28;20044;-66
2022/05/13 09:06:42;;;;;;;9.43;1.08;;;17.70;99.80;;;;;;5027407;28;20052;-66
2022/05/13 09:09:10;;;;;;;16.77;1.42;;;18.00;99.90;;;;;;5012831;28;20139;-66
2022/05/13 09:12:00;;;;;;;4.90;0.90;;;18.10;99.10;;;;;;5030426;28;20051;-66
2022/05/13 09:14:40;;;;;;;5.53;0.63;;;18.30;98.80;;;;;;5030077;28;20127;-66
2022/05/13 09:17:34;;;;;;;4.82;0.70;;;18.30;97.90;;;;;;5029162;28;20056;-66
2022/05/13 09:20:00;;;;;;;17.50;1.08;;;18.20;97.70;;;;;;5029151;28;21927;-66
2022/05/13 09:22:53;;;;;;;11.32;1.35;;;18.00;98.80;;;;;;5025563;28;20045;-66
2022/05/13 09:25:47;;;;;;;16.45;1.00;;;17.90;99.70;;;;;;5032374;28;20048;-66
2022/05/13 09:28:15;;;;;;;11.13;0.90;;;18.00;99.60;;;;;;5029709;28;20068;-66
2022/05/13 09:30:47;;;;;;;8.10;1.02;;;18.10;98.30;;;;;;5041768;28;20435;-66
2022/05/13 09:33:25;;;;;;;4.15;0.80;;;18.00;98.90;;;;;;5058686;28;20049;-66
2022/05/13 09:35:53;;;;;;;9.45;1.23;;;17.90;98.80;;;;;;5031867;28;20165;-66
2022/05/13 09:38:25;;;;;;;8.50;0.77;;;17.80;99.00;;;;;;5031951;28;20048;-67
2022/05/13 09:41:04;;;;;;;10.40;1.38;;;17.60;99.30;;;;;;5027573;28;20045;-66
2022/05/13 09:43:37;;;;;;;7.68;0.70;;;17.50;99.50;;;;;;5027709;28;20041;-66
2022/05/13 09:46:05;;;;;;;11.15;0.90;;;17.50;98.80;;;;;;5028747;28;20164;-66
2022/05/13 09:48:34;;;;;;;10.43;1.00;;;17.40;99.60;;;;;;5024990;28;20499;-66
2022/05/13 09:51:25;;;;;;;6.85;0.77;;;17.30;99.90;;;;;;5030089;28;20076;-66
2022/05/13 09:54:20;;;;;;;6.00;1.08;;;17.30;99.40;;;;;;5059319;28;20053;-66
2022/05/13 09:56:48;;;;;;;10.55;0.60;;;17.20;99.40;;;;;;5029575;28;20059;-66
2022/05/13 09:59:22;;;;;;;5.50;0.50;;;17.10;99.60;;;;;;5038099;28;20610;-66
2022/05/13 10:01:48;;;;;;;4.90;0.60;;;17.00;99.30;;;;;;5028119;28;20077;-66
2022/05/13 10:04:21;;;;;;;6.40;0.90;;;17.00;99.60;;;;;;5030076;28;20048;-66
2022/05/13 10:06:47;;;;;;;8.73;0.85;;;17.00;99.50;;;;;;5029470;28;20036;-66
2022/05/13 10:15:25;;;;;;;20.63;1.38;;;18.10;98.80;;;;;;5065100;28;20438;-67
2022/05/13 10:17:58;;;;;;;13.70;1.13;;;18.50;98.80;;;;;;5056254;28;20471;-67
2022/05/13 10:20:38;;;;;;;31.67;1.38;;;18.60;98.30;;;;;;5027388;28;20048;-67
2022/05/13 10:23:14;;;;;;;22.42;1.23;;;18.60;95.20;;;;;;5028006;28;20114;-67
2022/05/13 10:26:02;;;;;;;23.90;1.02;;;18.60;95.90;;;;;;5027431;28;20041;-67
2022/05/13 10:28:35;;;;;;;18.67;1.17;;;18.80;95.50;;;;;;5036163;28;20127;-66
2022/05/13 10:31:14;;;;;;;4.40;1.00;;;18.90;95.50;;;;;;5030525;28;20041;-67
2022/05/13 10:33:53;;;;;;;25.95;2.30;;;18.90;95.10;;;;;;5059661;28;20476;-67
2022/05/13 10:36:28;;;;;;;16.30;1.05;;;18.80;94.80;;;;;;5033229;28;20107;-67
2022/05/13 10:39:19;;;;;;;66.13;5.43;;;18.80;95.30;;;;;;5032037;28;20052;-67
2022/05/13 10:41:57;;;;;;;16.88;1.17;;;19.00;96.60;;;;;;5026665;28;20080;-67
2022/05/13 10:44:23;;;;;;;9.48;1.67;;;19.20;95.50;;;;;;5029805;28;20037;-67
2022/05/13 10:46:59;;;;;;;61.88;4.53;;;19.50;94.90;;;;;;5030801;28;20048;-67
2022/05/13 10:49:40;;;;;;;15.00;1.55;;;19.50;94.30;;;;;;5031569;28;20048;-67
2022/05/13 10:52:18;;;;;;;8.32;1.15;;;19.50;93.00;;;;;;5059620;28;20108;-67
2022/05/13 10:55:07;;;;;;;11.35;0.85;;;19.40;93.90;;;;;;5027953;28;20598;-67
2022/05/13 10:57:38;;;;;;;14.75;1.40;;;19.60;93.10;;;;;;5030743;28;20055;-67
2022/05/13 11:00:16;;;;;;;14.32;1.25;;;19.90;93.30;;;;;;5030081;28;20902;-67
2022/05/13 11:02:54;;;;;;;22.90;1.65;;;20.10;91.20;;;;;;5060433;28;20144;-67
2022/05/13 11:05:46;;;;;;;12.77;1.55;;;20.00;92.30;;;;;;5029717;28;20391;-67
2022/05/13 11:08:44;;;;;;;9.48;2.17;;;20.00;91.70;;;;;;5002139;28;20114;-67
2022/05/13 11:11:17;;;;;;;12.23;0.95;;;19.70;92.00;;;;;;5064934;28;20036;-66
2022/05/13 11:14:01;;;;;;;60.08;4.35;;;19.50;92.20;;;;;;5029318;28;20045;-66
2022/05/13 11:16:38;;;;;;;8.70;0.77;;;19.30;93.00;;;;;;5056302;28;20041;-67
2022/05/13 11:19:26;;;;;;;17.50;1.10;;;19.20;92.30;;;;;;5014301;28;20055;-67
2022/05/13 11:22:34;;;;;;;16.15;2.03;;;19.10;93.30;;;;;;5059070;28;20071;-67
2022/05/13 11:28:32;;;;;;;9.13;0.93;;;19.00;93.60;;;;;;5028096;28;20051;-67
2022/05/13 11:31:10;;;;;;;7.32;0.90;;;19.00;94.20;;;;;;5030889;28;20355;-67
2022/05/13 11:33:45;;;;;;;11.02;1.50;;;19.40;94.40;;;;;;5029572;28;20048;-67
2022/05/13 11:36:53;;;;;;;15.18;1.20;;;19.50;94.50;;;;;;5030059;28;20044;-67
2022/05/13 11:39:47;;;;;;;17.60;1.45;;;19.30;92.10;;;;;;5030147;28;20049;-67
2022/05/13 11:42:32;;;;;;;9.48;1.27;;;19.30;93.70;;;;;;5060226;28;20092;-67
2022/05/13 11:45:22;;;;;;;5.00;0.55;;;19.70;92.80;;;;;;5060991;28;20052;-67
2022/05/13 11:48:25;;;;;;;11.43;1.48;;;19.70;92.40;;;;;;5029982;28;20036;-67
2022/05/13 11:50:51;;;;;;;8.23;0.90;;;19.40;91.80;;;;;;5031703;28;20052;-66
2022/05/13 11:53:42;;;;;;;13.57;1.95;;;18.80;92.10;;;;;;5033054;28;20148;-66
2022/05/13 11:56:19;;;;;;;8.02;0.80;;;18.70;94.00;;;;;;5030895;28;20087;-67
2022/05/13 11:58:49;;;;;;;9.23;1.02;;;18.60;94.00;;;;;;5065419;28;20044;-67
2022/05/13 12:01:38;;;;;;;12.20;1.10;;;18.60;94.70;;;;;;5032125;28;20096;-67
2022/05/13 12:04:18;;;;;;;14.25;1.25;;;18.80;95.70;;;;;;5013117;28;20091;-67
2022/05/13 12:06:50;;;;;;;7.93;1.23;;;19.20;94.20;;;;;;5031521;28;20839;-66
2022/05/13 12:09:48;;;;;;;11.38;1.10;;;19.10;93.40;;;;;;5030654;28;20056;-67
2022/05/13 12:12:53;;;;;;;9.43;1.15;;;18.90;93.60;;;;;;4986460;28;20111;-67
2022/05/13 12:15:44;;;;;;;8.25;0.85;;;18.80;93.80;;;;;;5033812;28;20649;-67
2022/05/13 12:18:28;;;;;;;8.77;1.10;;;18.60;94.80;;;;;;5061202;28;20033;-67
2022/05/13 12:21:15;;;;;;;8.73;1.02;;;18.60;92.70;;;;;;5030797;28;20044;-67
2022/05/13 12:23:57;;;;;;;11.70;1.17;;;18.40;93.20;;;;;;5033473;28;20041;-67
2022/05/13 12:26:51;;;;;;;9.73;1.90;;;18.20;94.00;;;;;;5030663;28;20041;-67
2022/05/13 12:29:39;;;;;;;8.27;0.90;;;18.20;93.90;;;;;;5035924;28;20049;-67
2022/05/13 12:32:08;;;;;;;8.73;1.00;;;18.30;94.20;;;;;;5018934;28;20102;-67
2022/05/13 12:38:01;;;;;;;2.38;0.60;;;18.30;94.10;;;;;;5050287;28;20127;-66
2022/05/13 12:40:34;;;;;;;17.30;1.40;;;18.20;94.10;;;;;;5030492;28;20045;-66
2022/05/13 12:43:12;;;;;;;3.88;1.15;;;18.30;94.50;;;;;;5029677;28;20090;-67
2022/05/13 12:45:38;;;;;;;5.32;1.33;;;18.20;94.40;;;;;;5030918;28;20406;-67
2022/05/13 12:48:06;;;;;;;2.90;0.95;;;18.20;94.60;;;;;;5058569;28;20044;-66
2022/05/13 12:50:49;;;;;;;6.28;1.30;;;18.20;94.30;;;;;;5027097;28;20049;-67
2022/05/13 12:53:30;;;;;;;5.70;1.48;;;18.10;94.30;;;;;;5025236;28;20154;-67
2022/05/13 12:56:11;;;;;;;11.45;1.35;;;18.20;94.20;;;;;;5026112;28;20129;-67
2022/05/13 12:58:41;;;;;;;7.40;1.25;;;18.10;93.80;;;;;;5027885;28;20545;-66
2022/05/13 13:01:11;;;;;;;8.80;0.70;;;18.10;93.30;;;;;;5040326;28;20111;-67
2022/05/13 13:03:39;;;;;;;26.63;1.92;;;18.20;93.00;;;;;;5043003;28;20033;-67
2022/05/13 13:06:11;;;;;;;36.13;3.10;;;18.30;93.00;;;;;;5075718;28;20121;-67
2022/05/13 13:08:40;;;;;;;12.70;1.30;;;18.30;93.30;;;;;;5043758;28;20079;-67
2022/05/13 13:11:47;;;;;;;10.90;0.90;;;18.30;92.10;;;;;;5044838;28;20186;-67
2022/05/13 13:14:40;;;;;;;14.32;1.75;;;18.30;92.50;;;;;;5056968;28;20033;-66
2022/05/13 13:17:19;;;;;;;15.32;1.00;;;18.20;92.90;;;;;;5037230;28;20052;-67
2022/05/13 13:19:48;;;;;;;13.20;1.10;;;18.10;93.50;;;;;;5044087;28;20102;-67
2022/05/13 13:22:20;;;;;;;10.63;1.10;;;18.10;94.50;;;;;;5046012;28;20120;-66
2022/05/13 13:24:46;;;;;;;10.57;1.08;;;18.10;94.30;;;;;;5045837;28;20043;-67
2022/05/13 13:27:18;;;;;;;9.25;1.10;;;18.00;94.50;;;;;;5044114;28;20037;-66
2022/05/13 13:29:47;;;;;;;8.27;1.70;;;18.00;95.30;;;;;;5042786;28;20511;-66
2022/05/13 13:32:18;;;;;;;4.90;1.00;;;17.80;95.50;;;;;;5051086;28;20052;-66